sensor_id;sensor_type;location;lat;lon;timestamp;P1;durP1;ratioP1;P2;durP2;ratioP2
42514;SDS011;28144;49.920;18.730;2024-03-02T00:01:26;158.75;;;81.32;;
42514;SDS011;28144;49.920;18.730;2024-03-02T00:03:52;172.57;;;85.57;;
42514;SDS011;28144;49.920;18.730;2024-03-02T00:06:19;158.30;;;78.50;;
42514;SDS011;28144;49.920;18.730;2024-03-02T00:08:46;158.67;;;78.27;;
42514;SDS011;28144;49.920;18.730;2024-03-02T00:11:12;157.32;;;74.80;;
42514;SDS011;28144;49.920;18.730;2024-03-02T00:13:40;177.73;;;79.93;;
42514;SDS011;28144;49.920;18.730;2024-03-02T00:16:06;151.47;;;76.73;;
42514;SDS011;28144;49.920;18.730;2024-03-02T00:18:33;159.13;;;77.37;;
42514;SDS011;28144;49.920;18.730;2024-03-02T00:21:00;167.20;;;79.13;;
42514;SDS011;28144;49.920;18.730;2024-03-02T00:23:29;168.30;;;83.63;;
42514;SDS011;28144;49.920;18.730;2024-03-02T00:25:56;168.80;;;83.97;;
42514;SDS011;28144;49.920;18.730;2024-03-02T00:33:34;157.70;;;78.20;;
42514;SDS011;28144;49.920;18.730;2024-03-02T00:36:02;154.20;;;77.07;;
42514;SDS011;28144;49.920;18.730;2024-03-02T00:38:29;161.52;;;76.72;;
42514;SDS011;28144;49.920;18.730;2024-03-02T00:40:56;165.90;;;75.90;;
42514;SDS011;28144;49.920;18.730;2024-03-02T00:43:41;166.23;;;82.40;;
42514;SDS011;28144;49.920;18.730;2024-03-02T00:46:18;166.27;;;81.67;;
42514;SDS011;28144;49.920;18.730;2024-03-02T00:51:24;151.90;;;77.27;;
42514;SDS011;28144;49.920;18.730;2024-03-02T00:53:51;160.37;;;77.53;;
42514;SDS011;28144;49.920;18.730;2024-03-02T00:56:18;167.97;;;79.20;;
42514;SDS011;28144;49.920;18.730;2024-03-02T00:58:44;167.30;;;80.30;;
42514;SDS011;28144;49.920;18.730;2024-03-02T01:01:10;177.13;;;81.13;;
42514;SDS011;28144;49.920;18.730;2024-03-02T01:03:35;162.30;;;77.57;;
42514;SDS011;28144;49.920;18.730;2024-03-02T01:06:03;167.87;;;78.33;;
42514;SDS011;28144;49.920;18.730;2024-03-02T01:08:28;189.98;;;92.00;;
42514;SDS011;28144;49.920;18.730;2024-03-02T01:10:54;165.43;;;79.77;;
42514;SDS011;28144;49.920;18.730;2024-03-02T01:13:21;160.73;;;73.60;;
42514;SDS011;28144;49.920;18.730;2024-03-02T01:15:48;156.10;;;76.23;;
42514;SDS011;28144;49.920;18.730;2024-03-02T01:18:14;159.97;;;75.33;;
42514;SDS011;28144;49.920;18.730;2024-03-02T01:20:40;160.63;;;77.65;;
42514;SDS011;28144;49.920;18.730;2024-03-02T01:23:06;160.43;;;79.00;;
42514;SDS011;28144;49.920;18.730;2024-03-02T01:25:32;166.15;;;76.85;;
42514;SDS011;28144;49.920;18.730;2024-03-02T01:27:58;152.50;;;69.70;;
42514;SDS011;28144;49.920;18.730;2024-03-02T01:30:24;180.20;;;81.73;;
42514;SDS011;28144;49.920;18.730;2024-03-02T01:32:49;163.63;;;81.37;;
42514;SDS011;28144;49.920;18.730;2024-03-02T01:35:15;161.70;;;77.57;;
42514;SDS011;28144;49.920;18.730;2024-03-02T01:37:41;173.50;;;77.50;;
42514;SDS011;28144;49.920;18.730;2024-03-02T01:40:07;163.77;;;74.35;;
42514;SDS011;28144;49.920;18.730;2024-03-02T01:42:36;161.67;;;74.67;;
42514;SDS011;28144;49.920;18.730;2024-03-02T01:45:06;167.10;;;75.22;;
42514;SDS011;28144;49.920;18.730;2024-03-02T01:47:32;158.20;;;75.37;;
42514;SDS011;28144;49.920;18.730;2024-03-02T01:49:59;157.73;;;74.55;;
42514;SDS011;28144;49.920;18.730;2024-03-02T01:52:25;145.97;;;74.23;;
42514;SDS011;28144;49.920;18.730;2024-03-02T01:54:51;149.18;;;75.45;;
42514;SDS011;28144;49.920;18.730;2024-03-02T01:57:17;163.80;;;77.47;;
42514;SDS011;28144;49.920;18.730;2024-03-02T01:59:43;164.43;;;82.00;;
42514;SDS011;28144;49.920;18.730;2024-03-02T02:02:08;160.33;;;76.77;;
42514;SDS011;28144;49.920;18.730;2024-03-02T02:04:35;160.45;;;76.22;;
42514;SDS011;28144;49.920;18.730;2024-03-02T02:07:00;155.07;;;75.83;;
42514;SDS011;28144;49.920;18.730;2024-03-02T02:09:26;164.15;;;80.05;;
42514;SDS011;28144;49.920;18.730;2024-03-02T02:11:52;152.33;;;76.10;;
42514;SDS011;28144;49.920;18.730;2024-03-02T02:14:18;158.73;;;78.63;;
42514;SDS011;28144;49.920;18.730;2024-03-02T02:16:44;157.23;;;78.57;;
42514;SDS011;28144;49.920;18.730;2024-03-02T02:19:10;161.60;;;81.87;;
42514;SDS011;28144;49.920;18.730;2024-03-02T02:21:35;153.40;;;76.30;;
42514;SDS011;28144;49.920;18.730;2024-03-02T02:24:01;156.57;;;75.53;;
42514;SDS011;28144;49.920;18.730;2024-03-02T02:26:30;158.07;;;77.00;;
42514;SDS011;28144;49.920;18.730;2024-03-02T02:28:56;146.83;;;73.77;;
42514;SDS011;28144;49.920;18.730;2024-03-02T02:31:22;148.95;;;72.50;;
42514;SDS011;28144;49.920;18.730;2024-03-02T02:33:48;142.57;;;70.67;;
42514;SDS011;28144;49.920;18.730;2024-03-02T02:36:13;141.80;;;70.67;;
42514;SDS011;28144;49.920;18.730;2024-03-02T02:38:40;153.27;;;74.93;;
42514;SDS011;28144;49.920;18.730;2024-03-02T02:41:08;143.20;;;70.00;;
42514;SDS011;28144;49.920;18.730;2024-03-02T02:43:34;161.10;;;82.63;;
42514;SDS011;28144;49.920;18.730;2024-03-02T02:46:00;164.63;;;77.53;;
42514;SDS011;28144;49.920;18.730;2024-03-02T02:48:26;143.87;;;76.47;;
42514;SDS011;28144;49.920;18.730;2024-03-02T02:50:51;163.43;;;79.00;;
42514;SDS011;28144;49.920;18.730;2024-03-02T02:53:18;151.52;;;70.63;;
42514;SDS011;28144;49.920;18.730;2024-03-02T02:55:44;163.43;;;79.43;;
42514;SDS011;28144;49.920;18.730;2024-03-02T02:58:10;157.32;;;73.93;;
42514;SDS011;28144;49.920;18.730;2024-03-02T03:00:36;143.63;;;72.87;;
42514;SDS011;28144;49.920;18.730;2024-03-02T03:03:02;152.33;;;74.37;;
42514;SDS011;28144;49.920;18.730;2024-03-02T03:05:28;160.25;;;77.40;;
42514;SDS011;28144;49.920;18.730;2024-03-02T03:07:54;163.02;;;77.90;;
42514;SDS011;28144;49.920;18.730;2024-03-02T03:10:20;174.13;;;79.63;;
42514;SDS011;28144;49.920;18.730;2024-03-02T03:12:49;172.10;;;79.77;;
42514;SDS011;28144;49.920;18.730;2024-03-02T03:15:14;182.90;;;90.07;;
42514;SDS011;28144;49.920;18.730;2024-03-02T03:17:42;169.03;;;87.10;;
42514;SDS011;28144;49.920;18.730;2024-03-02T03:20:08;189.47;;;99.40;;
42514;SDS011;28144;49.920;18.730;2024-03-02T03:22:40;160.10;;;75.00;;
42514;SDS011;28144;49.920;18.730;2024-03-02T03:25:05;171.27;;;88.57;;
42514;SDS011;28144;49.920;18.730;2024-03-02T03:27:33;163.57;;;77.00;;
42514;SDS011;28144;49.920;18.730;2024-03-02T03:29:59;139.03;;;71.83;;
42514;SDS011;28144;49.920;18.730;2024-03-02T03:32:25;146.70;;;72.55;;
42514;SDS011;28144;49.920;18.730;2024-03-02T03:34:50;148.20;;;76.03;;
42514;SDS011;28144;49.920;18.730;2024-03-02T03:37:16;147.80;;;74.53;;
42514;SDS011;28144;49.920;18.730;2024-03-02T03:39:42;140.90;;;72.53;;
42514;SDS011;28144;49.920;18.730;2024-03-02T03:42:08;149.00;;;75.57;;
42514;SDS011;28144;49.920;18.730;2024-03-02T03:44:34;143.60;;;75.97;;
42514;SDS011;28144;49.920;18.730;2024-03-02T03:47:00;135.57;;;69.53;;
42514;SDS011;28144;49.920;18.730;2024-03-02T03:49:27;142.18;;;71.97;;
42514;SDS011;28144;49.920;18.730;2024-03-02T03:51:53;144.77;;;72.57;;
42514;SDS011;28144;49.920;18.730;2024-03-02T03:54:19;133.60;;;69.30;;
42514;SDS011;28144;49.920;18.730;2024-03-02T03:56:45;146.30;;;73.30;;
42514;SDS011;28144;49.920;18.730;2024-03-02T03:59:11;144.00;;;71.87;;
42514;SDS011;28144;49.920;18.730;2024-03-02T04:01:37;144.10;;;75.97;;
42514;SDS011;28144;49.920;18.730;2024-03-02T04:04:02;150.60;;;80.27;;
42514;SDS011;28144;49.920;18.730;2024-03-02T04:06:29;146.02;;;73.50;;
42514;SDS011;28144;49.920;18.730;2024-03-02T04:08:55;143.53;;;74.93;;
42514;SDS011;28144;49.920;18.730;2024-03-02T04:11:21;192.77;;;96.73;;
42514;SDS011;28144;49.920;18.730;2024-03-02T04:13:47;162.45;;;85.85;;
42514;SDS011;28144;49.920;18.730;2024-03-02T04:16:13;159.73;;;78.13;;
42514;SDS011;28144;49.920;18.730;2024-03-02T04:18:38;127.03;;;68.40;;
42514;SDS011;28144;49.920;18.730;2024-03-02T04:21:05;133.80;;;70.93;;
42514;SDS011;28144;49.920;18.730;2024-03-02T04:23:31;133.67;;;64.87;;
42514;SDS011;28144;49.920;18.730;2024-03-02T04:25:57;140.45;;;70.20;;
42514;SDS011;28144;49.920;18.730;2024-03-02T04:28:22;159.33;;;85.07;;
42514;SDS011;28144;49.920;18.730;2024-03-02T04:30:48;149.77;;;82.33;;
42514;SDS011;28144;49.920;18.730;2024-03-02T04:33:14;133.23;;;72.53;;
42514;SDS011;28144;49.920;18.730;2024-03-02T04:35:40;136.57;;;70.70;;
42514;SDS011;28144;49.920;18.730;2024-03-02T04:38:05;131.17;;;67.53;;
42514;SDS011;28144;49.920;18.730;2024-03-02T04:40:31;123.97;;;68.73;;
42514;SDS011;28144;49.920;18.730;2024-03-02T04:42:57;154.80;;;86.13;;
42514;SDS011;28144;49.920;18.730;2024-03-02T04:45:24;153.60;;;84.57;;
42514;SDS011;28144;49.920;18.730;2024-03-02T04:47:50;124.30;;;65.93;;
42514;SDS011;28144;49.920;18.730;2024-03-02T04:50:16;135.83;;;70.90;;
42514;SDS011;28144;49.920;18.730;2024-03-02T04:52:42;130.50;;;72.03;;
42514;SDS011;28144;49.920;18.730;2024-03-02T04:55:08;129.03;;;69.00;;
42514;SDS011;28144;49.920;18.730;2024-03-02T04:57:36;124.97;;;65.87;;
42514;SDS011;28144;49.920;18.730;2024-03-02T05:00:02;129.43;;;70.07;;
42514;SDS011;28144;49.920;18.730;2024-03-02T05:02:32;129.67;;;72.00;;
42514;SDS011;28144;49.920;18.730;2024-03-02T05:04:58;132.20;;;71.20;;
42514;SDS011;28144;49.920;18.730;2024-03-02T05:07:23;158.40;;;91.60;;
42514;SDS011;28144;49.920;18.730;2024-03-02T05:09:49;147.43;;;81.50;;
42514;SDS011;28144;49.920;18.730;2024-03-02T05:12:15;140.17;;;76.43;;
42514;SDS011;28144;49.920;18.730;2024-03-02T05:14:41;131.67;;;74.97;;
42514;SDS011;28144;49.920;18.730;2024-03-02T05:17:06;135.43;;;73.50;;
42514;SDS011;28144;49.920;18.730;2024-03-02T05:19:32;143.93;;;89.00;;
42514;SDS011;28144;49.920;18.730;2024-03-02T05:21:58;142.20;;;78.83;;
42514;SDS011;28144;49.920;18.730;2024-03-02T05:24:24;117.28;;;63.15;;
42514;SDS011;28144;49.920;18.730;2024-03-02T05:26:52;123.17;;;70.97;;
42514;SDS011;28144;49.920;18.730;2024-03-02T05:29:18;126.68;;;72.93;;
42514;SDS011;28144;49.920;18.730;2024-03-02T05:31:44;122.60;;;67.60;;
42514;SDS011;28144;49.920;18.730;2024-03-02T05:34:10;129.83;;;69.37;;
42514;SDS011;28144;49.920;18.730;2024-03-02T05:36:35;115.73;;;64.33;;
42514;SDS011;28144;49.920;18.730;2024-03-02T05:39:02;123.27;;;68.37;;
42514;SDS011;28144;49.920;18.730;2024-03-02T05:41:30;120.50;;;65.27;;
42514;SDS011;28144;49.920;18.730;2024-03-02T05:43:57;127.25;;;62.83;;
42514;SDS011;28144;49.920;18.730;2024-03-02T05:46:22;117.70;;;60.57;;
42514;SDS011;28144;49.920;18.730;2024-03-02T05:48:48;110.67;;;60.30;;
42514;SDS011;28144;49.920;18.730;2024-03-02T05:51:14;124.47;;;64.67;;
42514;SDS011;28144;49.920;18.730;2024-03-02T05:53:40;121.93;;;63.57;;
42514;SDS011;28144;49.920;18.730;2024-03-02T05:56:05;113.07;;;59.00;;
42514;SDS011;28144;49.920;18.730;2024-03-02T05:58:31;120.82;;;61.28;;
42514;SDS011;28144;49.920;18.730;2024-03-02T06:01:15;107.20;;;58.17;;
42514;SDS011;28144;49.920;18.730;2024-03-02T06:03:43;111.27;;;64.60;;
42514;SDS011;28144;49.920;18.730;2024-03-02T06:06:09;128.53;;;74.73;;
42514;SDS011;28144;49.920;18.730;2024-03-02T06:08:35;136.10;;;72.55;;
42514;SDS011;28144;49.920;18.730;2024-03-02T06:11:01;115.17;;;58.63;;
42514;SDS011;28144;49.920;18.730;2024-03-02T06:13:27;130.20;;;65.80;;
42514;SDS011;28144;49.920;18.730;2024-03-02T06:15:53;113.67;;;60.07;;
42514;SDS011;28144;49.920;18.730;2024-03-02T06:18:19;101.57;;;52.97;;
42514;SDS011;28144;49.920;18.730;2024-03-02T06:20:44;125.83;;;65.30;;
42514;SDS011;28144;49.920;18.730;2024-03-02T06:23:11;117.20;;;55.88;;
42514;SDS011;28144;49.920;18.730;2024-03-02T06:25:36;120.93;;;66.03;;
42514;SDS011;28144;49.920;18.730;2024-03-02T06:28:02;122.20;;;64.97;;
42514;SDS011;28144;49.920;18.730;2024-03-02T06:30:29;123.33;;;67.67;;
42514;SDS011;28144;49.920;18.730;2024-03-02T06:32:55;116.27;;;64.83;;
42514;SDS011;28144;49.920;18.730;2024-03-02T06:35:21;116.83;;;62.10;;
42514;SDS011;28144;49.920;18.730;2024-03-02T06:37:47;113.63;;;59.83;;
42514;SDS011;28144;49.920;18.730;2024-03-02T06:40:12;111.50;;;62.30;;
42514;SDS011;28144;49.920;18.730;2024-03-02T06:42:38;112.03;;;61.65;;
42514;SDS011;28144;49.920;18.730;2024-03-02T06:45:04;113.40;;;61.55;;
42514;SDS011;28144;49.920;18.730;2024-03-02T06:47:31;115.70;;;70.43;;
42514;SDS011;28144;49.920;18.730;2024-03-02T06:49:56;112.60;;;59.53;;
42514;SDS011;28144;49.920;18.730;2024-03-02T06:52:24;113.13;;;58.80;;
42514;SDS011;28144;49.920;18.730;2024-03-02T06:54:49;119.47;;;67.10;;
42514;SDS011;28144;49.920;18.730;2024-03-02T06:57:16;109.55;;;61.05;;
42514;SDS011;28144;49.920;18.730;2024-03-02T06:59:42;126.18;;;68.50;;
42514;SDS011;28144;49.920;18.730;2024-03-02T07:02:08;118.80;;;67.30;;
42514;SDS011;28144;49.920;18.730;2024-03-02T07:04:34;111.20;;;57.87;;
42514;SDS011;28144;49.920;18.730;2024-03-02T07:06:59;101.63;;;56.20;;
42514;SDS011;28144;49.920;18.730;2024-03-02T07:09:25;101.23;;;54.37;;
42514;SDS011;28144;49.920;18.730;2024-03-02T07:11:51;103.70;;;57.17;;
42514;SDS011;28144;49.920;18.730;2024-03-02T07:14:17;113.70;;;62.40;;
42514;SDS011;28144;49.920;18.730;2024-03-02T07:16:43;145.17;;;79.37;;
42514;SDS011;28144;49.920;18.730;2024-03-02T07:19:09;156.80;;;84.75;;
42514;SDS011;28144;49.920;18.730;2024-03-02T07:21:34;106.90;;;57.57;;
42514;SDS011;28144;49.920;18.730;2024-03-02T07:24:00;107.63;;;61.88;;
42514;SDS011;28144;49.920;18.730;2024-03-02T07:26:30;115.40;;;64.23;;
42514;SDS011;28144;49.920;18.730;2024-03-02T07:28:57;96.87;;;56.27;;
42514;SDS011;28144;49.920;18.730;2024-03-02T07:31:22;109.53;;;60.65;;
42514;SDS011;28144;49.920;18.730;2024-03-02T07:33:48;111.70;;;58.37;;
42514;SDS011;28144;49.920;18.730;2024-03-02T07:36:14;99.90;;;54.60;;
42514;SDS011;28144;49.920;18.730;2024-03-02T07:38:40;114.47;;;61.58;;
42514;SDS011;28144;49.920;18.730;2024-03-02T07:41:07;103.67;;;55.20;;
42514;SDS011;28144;49.920;18.730;2024-03-02T07:43:33;110.63;;;59.63;;
42514;SDS011;28144;49.920;18.730;2024-03-02T07:45:59;99.47;;;55.63;;
42514;SDS011;28144;49.920;18.730;2024-03-02T07:48:25;89.90;;;51.10;;
42514;SDS011;28144;49.920;18.730;2024-03-02T07:50:52;91.80;;;51.30;;
42514;SDS011;28144;49.920;18.730;2024-03-02T07:53:18;107.87;;;66.30;;
42514;SDS011;28144;49.920;18.730;2024-03-02T07:55:43;102.80;;;54.20;;
42514;SDS011;28144;49.920;18.730;2024-03-02T07:58:10;98.68;;;53.42;;
42514;SDS011;28144;49.920;18.730;2024-03-02T08:00:38;106.30;;;65.30;;
42514;SDS011;28144;49.920;18.730;2024-03-02T08:03:05;94.97;;;59.77;;
42514;SDS011;28144;49.920;18.730;2024-03-02T08:05:31;91.45;;;55.38;;
42514;SDS011;28144;49.920;18.730;2024-03-02T08:07:57;95.70;;;47.97;;
42514;SDS011;28144;49.920;18.730;2024-03-02T08:10:23;87.83;;;49.07;;
42514;SDS011;28144;49.920;18.730;2024-03-02T08:12:49;101.22;;;57.53;;
42514;SDS011;28144;49.920;18.730;2024-03-02T08:15:15;79.00;;;44.40;;
42514;SDS011;28144;49.920;18.730;2024-03-02T08:17:41;79.00;;;47.40;;
42514;SDS011;28144;49.920;18.730;2024-03-02T08:20:14;79.65;;;46.55;;
42514;SDS011;28144;49.920;18.730;2024-03-02T08:22:40;81.88;;;48.78;;
42514;SDS011;28144;49.920;18.730;2024-03-02T08:25:06;83.13;;;50.50;;
42514;SDS011;28144;49.920;18.730;2024-03-02T08:27:33;78.90;;;47.55;;
42514;SDS011;28144;49.920;18.730;2024-03-02T08:29:59;77.90;;;45.00;;
42514;SDS011;28144;49.920;18.730;2024-03-02T08:32:25;86.25;;;45.03;;
42514;SDS011;28144;49.920;18.730;2024-03-02T08:34:51;82.53;;;47.93;;
42514;SDS011;28144;49.920;18.730;2024-03-02T08:37:17;79.20;;;47.13;;
42514;SDS011;28144;49.920;18.730;2024-03-02T08:39:42;87.40;;;51.50;;
42514;SDS011;28144;49.920;18.730;2024-03-02T08:42:09;119.85;;;63.00;;
42514;SDS011;28144;49.920;18.730;2024-03-02T08:44:35;88.33;;;53.60;;
42514;SDS011;28144;49.920;18.730;2024-03-02T08:47:01;86.50;;;52.97;;
42514;SDS011;28144;49.920;18.730;2024-03-02T08:49:27;97.15;;;55.40;;
42514;SDS011;28144;49.920;18.730;2024-03-02T08:51:53;93.32;;;55.55;;
42514;SDS011;28144;49.920;18.730;2024-03-02T08:54:22;95.33;;;55.87;;
42514;SDS011;28144;49.920;18.730;2024-03-02T08:56:48;119.87;;;64.83;;
42514;SDS011;28144;49.920;18.730;2024-03-02T08:59:14;91.78;;;55.20;;
42514;SDS011;28144;49.920;18.730;2024-03-02T09:01:40;94.72;;;57.13;;
42514;SDS011;28144;49.920;18.730;2024-03-02T09:04:07;85.32;;;50.53;;
42514;SDS011;28144;49.920;18.730;2024-03-02T09:06:34;91.10;;;52.73;;
42514;SDS011;28144;49.920;18.730;2024-03-02T09:09:00;91.68;;;54.72;;
42514;SDS011;28144;49.920;18.730;2024-03-02T09:11:26;97.60;;;54.58;;
42514;SDS011;28144;49.920;18.730;2024-03-02T09:13:52;92.53;;;54.00;;
42514;SDS011;28144;49.920;18.730;2024-03-02T09:16:18;96.70;;;57.70;;
42514;SDS011;28144;49.920;18.730;2024-03-02T09:18:44;106.40;;;59.83;;
42514;SDS011;28144;49.920;18.730;2024-03-02T09:21:10;96.20;;;59.55;;
42514;SDS011;28144;49.920;18.730;2024-03-02T09:23:36;98.87;;;56.80;;
42514;SDS011;28144;49.920;18.730;2024-03-02T09:26:02;93.75;;;57.50;;
42514;SDS011;28144;49.920;18.730;2024-03-02T09:28:28;93.07;;;54.25;;
42514;SDS011;28144;49.920;18.730;2024-03-02T09:30:54;89.50;;;53.97;;
42514;SDS011;28144;49.920;18.730;2024-03-02T09:33:20;102.73;;;57.53;;
42514;SDS011;28144;49.920;18.730;2024-03-02T09:35:46;95.95;;;56.50;;
42514;SDS011;28144;49.920;18.730;2024-03-02T09:38:12;93.80;;;57.77;;
42514;SDS011;28144;49.920;18.730;2024-03-02T09:40:38;95.63;;;57.75;;
42514;SDS011;28144;49.920;18.730;2024-03-02T09:43:04;91.17;;;50.60;;
42514;SDS011;28144;49.920;18.730;2024-03-02T09:45:30;80.68;;;48.33;;
42514;SDS011;28144;49.920;18.730;2024-03-02T09:47:56;83.95;;;50.83;;
42514;SDS011;28144;49.920;18.730;2024-03-02T09:50:22;88.50;;;48.00;;
42514;SDS011;28144;49.920;18.730;2024-03-02T09:52:48;111.47;;;61.33;;
42514;SDS011;28144;49.920;18.730;2024-03-02T09:55:15;106.07;;;58.87;;
42514;SDS011;28144;49.920;18.730;2024-03-02T09:57:43;115.00;;;60.73;;
42514;SDS011;28144;49.920;18.730;2024-03-02T10:00:09;117.35;;;65.00;;
42514;SDS011;28144;49.920;18.730;2024-03-02T10:02:43;105.87;;;58.43;;
42514;SDS011;28144;49.920;18.730;2024-03-02T10:05:09;110.67;;;58.03;;
42514;SDS011;28144;49.920;18.730;2024-03-02T10:07:35;87.93;;;46.17;;
42514;SDS011;28144;49.920;18.730;2024-03-02T10:10:13;111.18;;;59.40;;
42514;SDS011;28144;49.920;18.730;2024-03-02T10:12:40;124.87;;;66.33;;
42514;SDS011;28144;49.920;18.730;2024-03-02T10:15:06;126.83;;;65.93;;
42514;SDS011;28144;49.920;18.730;2024-03-02T10:17:32;132.93;;;70.28;;
42514;SDS011;28144;49.920;18.730;2024-03-02T10:19:58;128.13;;;69.50;;
42514;SDS011;28144;49.920;18.730;2024-03-02T10:22:24;132.80;;;69.00;;
42514;SDS011;28144;49.920;18.730;2024-03-02T10:24:52;121.63;;;66.70;;
42514;SDS011;28144;49.920;18.730;2024-03-02T10:27:26;123.30;;;65.95;;
42514;SDS011;28144;49.920;18.730;2024-03-02T10:29:53;105.53;;;59.47;;
42514;SDS011;28144;49.920;18.730;2024-03-02T10:32:20;97.13;;;54.57;;
42514;SDS011;28144;49.920;18.730;2024-03-02T10:34:47;101.97;;;59.23;;
42514;SDS011;28144;49.920;18.730;2024-03-02T10:37:13;101.93;;;59.37;;
42514;SDS011;28144;49.920;18.730;2024-03-02T10:39:40;96.33;;;55.03;;
42514;SDS011;28144;49.920;18.730;2024-03-02T10:42:06;106.33;;;59.10;;
42514;SDS011;28144;49.920;18.730;2024-03-02T10:44:33;90.35;;;52.72;;
42514;SDS011;28144;49.920;18.730;2024-03-02T10:47:02;97.13;;;60.45;;
42514;SDS011;28144;49.920;18.730;2024-03-02T10:49:30;103.97;;;60.93;;
42514;SDS011;28144;49.920;18.730;2024-03-02T10:52:00;109.88;;;66.22;;
42514;SDS011;28144;49.920;18.730;2024-03-02T10:54:26;103.73;;;60.37;;
42514;SDS011;28144;49.920;18.730;2024-03-02T10:56:55;120.17;;;69.40;;
42514;SDS011;28144;49.920;18.730;2024-03-02T10:59:27;118.10;;;71.13;;
42514;SDS011;28144;49.920;18.730;2024-03-02T11:01:57;121.67;;;68.53;;
42514;SDS011;28144;49.920;18.730;2024-03-02T11:04:25;108.20;;;64.40;;
42514;SDS011;28144;49.920;18.730;2024-03-02T11:06:53;109.03;;;63.60;;
42514;SDS011;28144;49.920;18.730;2024-03-02T11:09:24;110.70;;;63.83;;
42514;SDS011;28144;49.920;18.730;2024-03-02T11:11:56;95.50;;;57.33;;
42514;SDS011;28144;49.920;18.730;2024-03-02T11:14:25;99.80;;;56.00;;
42514;SDS011;28144;49.920;18.730;2024-03-02T11:16:51;106.53;;;61.37;;
42514;SDS011;28144;49.920;18.730;2024-03-02T11:19:17;101.45;;;57.22;;
42514;SDS011;28144;49.920;18.730;2024-03-02T11:21:44;101.00;;;61.50;;
42514;SDS011;28144;49.920;18.730;2024-03-02T11:24:43;96.55;;;48.90;;
42514;SDS011;28144;49.920;18.730;2024-03-02T11:27:03;102.87;;;60.73;;
42514;SDS011;28144;49.920;18.730;2024-03-02T11:32:17;99.78;;;60.45;;
42514;SDS011;28144;49.920;18.730;2024-03-02T11:34:47;93.32;;;53.03;;
42514;SDS011;28144;49.920;18.730;2024-03-02T11:37:15;98.73;;;57.43;;
42514;SDS011;28144;49.920;18.730;2024-03-02T11:39:50;89.95;;;53.67;;
42514;SDS011;28144;49.920;18.730;2024-03-02T11:42:16;100.82;;;56.88;;
42514;SDS011;28144;49.920;18.730;2024-03-02T11:44:47;93.80;;;55.57;;
42514;SDS011;28144;49.920;18.730;2024-03-02T11:47:16;89.93;;;51.77;;
42514;SDS011;28144;49.920;18.730;2024-03-02T11:52:13;116.53;;;63.60;;
42514;SDS011;28144;49.920;18.730;2024-03-02T11:54:41;100.80;;;52.07;;
42514;SDS011;28144;49.920;18.730;2024-03-02T11:57:20;90.07;;;52.85;;
42514;SDS011;28144;49.920;18.730;2024-03-02T11:59:51;97.07;;;56.50;;
42514;SDS011;28144;49.920;18.730;2024-03-02T12:02:18;88.40;;;55.93;;
42514;SDS011;28144;49.920;18.730;2024-03-02T12:04:45;96.07;;;56.42;;
42514;SDS011;28144;49.920;18.730;2024-03-02T12:07:20;99.28;;;61.22;;
42514;SDS011;28144;49.920;18.730;2024-03-02T12:09:48;122.60;;;66.68;;
42514;SDS011;28144;49.920;18.730;2024-03-02T12:12:14;125.47;;;71.45;;
42514;SDS011;28144;49.920;18.730;2024-03-02T12:14:50;91.18;;;57.10;;
42514;SDS011;28144;49.920;18.730;2024-03-02T12:17:17;178.65;;;102.88;;
42514;SDS011;28144;49.920;18.730;2024-03-02T12:19:43;100.77;;;62.23;;
42514;SDS011;28144;49.920;18.730;2024-03-02T12:22:09;177.10;;;81.47;;
42514;SDS011;28144;49.920;18.730;2024-03-02T12:24:35;167.87;;;80.70;;
42514;SDS011;28144;49.920;18.730;2024-03-02T12:27:02;122.55;;;65.88;;
42514;SDS011;28144;49.920;18.730;2024-03-02T12:29:30;146.75;;;75.15;;
42514;SDS011;28144;49.920;18.730;2024-03-02T12:31:55;103.70;;;62.73;;
42514;SDS011;28144;49.920;18.730;2024-03-02T12:34:21;100.75;;;61.55;;
42514;SDS011;28144;49.920;18.730;2024-03-02T12:36:48;114.80;;;65.45;;
42514;SDS011;28144;49.920;18.730;2024-03-02T12:39:18;119.30;;;66.57;;
42514;SDS011;28144;49.920;18.730;2024-03-02T12:41:44;115.60;;;67.05;;
42514;SDS011;28144;49.920;18.730;2024-03-02T12:44:11;125.57;;;70.15;;
42514;SDS011;28144;49.920;18.730;2024-03-02T12:46:37;115.23;;;68.03;;
42514;SDS011;28144;49.920;18.730;2024-03-02T12:49:10;170.80;;;82.47;;
42514;SDS011;28144;49.920;18.730;2024-03-02T12:51:37;200.88;;;96.60;;
42514;SDS011;28144;49.920;18.730;2024-03-02T13:01:33;123.68;;;71.93;;
42514;SDS011;28144;49.920;18.730;2024-03-02T13:04:00;118.20;;;67.88;;
42514;SDS011;28144;49.920;18.730;2024-03-02T13:06:26;114.30;;;66.70;;
42514;SDS011;28144;49.920;18.730;2024-03-02T13:08:55;124.93;;;70.72;;
42514;SDS011;28144;49.920;18.730;2024-03-02T13:11:21;113.90;;;70.73;;
42514;SDS011;28144;49.920;18.730;2024-03-02T13:13:49;114.03;;;70.13;;
42514;SDS011;28144;49.920;18.730;2024-03-02T13:16:15;117.05;;;73.20;;
42514;SDS011;28144;49.920;18.730;2024-03-02T13:21:08;118.75;;;73.47;;
42514;SDS011;28144;49.920;18.730;2024-03-02T13:23:34;137.15;;;79.00;;
42514;SDS011;28144;49.920;18.730;2024-03-02T13:26:00;116.40;;;69.97;;
42514;SDS011;28144;49.920;18.730;2024-03-02T13:28:27;139.73;;;83.35;;
42514;SDS011;28144;49.920;18.730;2024-03-02T13:30:53;126.10;;;75.25;;
42514;SDS011;28144;49.920;18.730;2024-03-02T13:33:19;122.18;;;74.32;;
42514;SDS011;28144;49.920;18.730;2024-03-02T13:35:50;121.93;;;77.35;;
42514;SDS011;28144;49.920;18.730;2024-03-02T13:38:17;148.38;;;89.47;;
42514;SDS011;28144;49.920;18.730;2024-03-02T13:40:43;125.57;;;74.60;;
42514;SDS011;28144;49.920;18.730;2024-03-02T13:43:10;126.00;;;77.35;;
42514;SDS011;28144;49.920;18.730;2024-03-02T13:45:37;157.10;;;101.50;;
42514;SDS011;28144;49.920;18.730;2024-03-02T13:48:06;126.55;;;75.32;;
42514;SDS011;28144;49.920;18.730;2024-03-02T13:50:32;126.97;;;78.05;;
42514;SDS011;28144;49.920;18.730;2024-03-02T13:53:03;130.15;;;76.03;;
42514;SDS011;28144;49.920;18.730;2024-03-02T13:55:31;140.57;;;80.60;;
42514;SDS011;28144;49.920;18.730;2024-03-02T13:57:59;121.43;;;79.45;;
42514;SDS011;28144;49.920;18.730;2024-03-02T14:00:24;123.37;;;75.80;;
42514;SDS011;28144;49.920;18.730;2024-03-02T14:02:51;121.03;;;72.75;;
42514;SDS011;28144;49.920;18.730;2024-03-02T14:05:16;109.67;;;64.70;;
42514;SDS011;28144;49.920;18.730;2024-03-02T14:07:46;111.05;;;69.68;;
42514;SDS011;28144;49.920;18.730;2024-03-02T14:10:12;107.27;;;65.13;;
42514;SDS011;28144;49.920;18.730;2024-03-02T14:12:38;103.72;;;59.85;;
42514;SDS011;28144;49.920;18.730;2024-03-02T14:15:04;107.90;;;64.87;;
42514;SDS011;28144;49.920;18.730;2024-03-02T14:17:30;106.65;;;67.35;;
42514;SDS011;28144;49.920;18.730;2024-03-02T14:19:58;93.18;;;53.35;;